sensor_id;sensor_type;location;lat;lon;timestamp;pressure;altitude;pressure_sealevel;temperature;humidity
69784;BME280;57054;51.978;4.498;2023-05-23T00:01:19;102078.75;;;12.70;99.97
69784;BME280;57054;51.978;4.498;2023-05-23T00:03:45;102081.31;;;12.73;99.70
69784;BME280;57054;51.978;4.498;2023-05-23T00:06:11;102081.06;;;12.80;99.91
69784;BME280;57054;51.978;4.498;2023-05-23T00:08:36;102082.75;;;12.83;99.61
69784;BME280;57054;51.978;4.498;2023-05-23T00:11:02;102084.72;;;12.76;99.68
69784;BME280;57054;51.978;4.498;2023-05-23T00:13:27;102077.88;;;12.71;99.79
69784;BME280;57054;51.978;4.498;2023-05-23T00:15:53;102091.81;;;12.73;99.96
69784;BME280;57054;51.978;4.498;2023-05-23T00:18:18;102083.09;;;12.72;100.00
69784;BME280;57054;51.978;4.498;2023-05-23T00:20:44;102093.56;;;12.74;99.61
69784;BME280;57054;51.978;4.498;2023-05-23T00:23:10;102084.09;;;12.68;99.79
69784;BME280;57054;51.978;4.498;2023-05-23T00:25:38;102088.47;;;12.67;99.69
69784;BME280;57054;51.978;4.498;2023-05-23T00:28:05;102084.91;;;12.70;99.73
69784;BME280;57054;51.978;4.498;2023-05-23T00:30:31;102083.09;;;12.72;99.70
69784;BME280;57054;51.978;4.498;2023-05-23T00:32:58;102078.56;;;12.77;99.75
69784;BME280;57054;51.978;4.498;2023-05-23T00:35:24;102083.00;;;12.75;100.00
69784;BME280;57054;51.978;4.498;2023-05-23T00:37:50;102087.09;;;12.84;100.00
69784;BME280;57054;51.978;4.498;2023-05-23T00:40:19;102094.94;;;12.85;100.00
69784;BME280;57054;51.978;4.498;2023-05-23T00:42:46;102094.00;;;12.88;99.96
69784;BME280;57054;51.978;4.498;2023-05-23T00:45:12;102101.91;;;12.88;100.00
69784;BME280;57054;51.978;4.498;2023-05-23T00:47:39;102101.06;;;12.86;100.00
69784;BME280;57054;51.978;4.498;2023-05-23T00:50:07;102106.22;;;12.89;100.00
69784;BME280;57054;51.978;4.498;2023-05-23T00:52:34;102108.00;;;12.89;100.00
69784;BME280;57054;51.978;4.498;2023-05-23T00:55:00;102108.91;;;12.87;100.00
69784;BME280;57054;51.978;4.498;2023-05-23T00:57:26;102096.53;;;12.91;100.00
69784;BME280;57054;51.978;4.498;2023-05-23T00:59:51;102097.50;;;12.89;100.00
69784;BME280;57054;51.978;4.498;2023-05-23T01:04:54;102090.41;;;12.91;100.00
69784;BME280;57054;51.978;4.498;2023-05-23T01:07:20;102093.81;;;12.94;100.00
69784;BME280;57054;51.978;4.498;2023-05-23T01:09:46;102092.84;;;12.97;99.76
69784;BME280;57054;51.978;4.498;2023-05-23T01:12:20;102095.63;;;12.92;99.08
69784;BME280;57054;51.978;4.498;2023-05-23T01:15:03;102091.94;;;12.98;99.02
69784;BME280;57054;51.978;4.498;2023-05-23T01:17:58;102091.75;;;13.04;98.47
69784;BME280;57054;51.978;4.498;2023-05-23T01:28:54;102109.25;;;13.05;97.00
69784;BME280;57054;51.978;4.498;2023-05-23T01:31:23;102103.19;;;13.03;96.29
69784;BME280;57054;51.978;4.498;2023-05-23T01:33:52;102105.88;;;13.01;96.49
69784;BME280;57054;51.978;4.498;2023-05-23T01:36:18;102102.41;;;12.99;96.01
69784;BME280;57054;51.978;4.498;2023-05-23T01:38:43;102103.47;;;12.94;95.50
69784;BME280;57054;51.978;4.498;2023-05-23T01:41:09;102103.22;;;13.01;95.57
69784;BME280;57054;51.978;4.498;2023-05-23T01:43:34;102100.66;;;13.00;94.83
69784;BME280;57054;51.978;4.498;2023-05-23T01:46:00;102104.88;;;13.04;94.67
69784;BME280;57054;51.978;4.498;2023-05-23T01:48:26;102113.78;;;13.00;94.47
69784;BME280;57054;51.978;4.498;2023-05-23T01:50:53;102110.28;;;13.01;94.69
69784;BME280;57054;51.978;4.498;2023-05-23T01:53:22;102098.75;;;13.05;94.45
69784;BME280;57054;51.978;4.498;2023-05-23T01:55:47;102110.09;;;13.05;93.49
69784;BME280;57054;51.978;4.498;2023-05-23T01:58:13;102111.81;;;13.08;93.49
69784;BME280;57054;51.978;4.498;2023-05-23T02:00:39;102111.09;;;13.03;93.60
69784;BME280;57054;51.978;4.498;2023-05-23T02:03:05;102099.72;;;13.02;93.64
69784;BME280;57054;51.978;4.498;2023-05-23T02:05:30;102105.06;;;12.99;93.29
69784;BME280;57054;51.978;4.498;2023-05-23T02:07:55;102112.84;;;13.02;93.24
69784;BME280;57054;51.978;4.498;2023-05-23T02:10:21;102118.16;;;13.01;93.79
69784;BME280;57054;51.978;4.498;2023-05-23T02:12:46;102110.09;;;13.05;93.44
69784;BME280;57054;51.978;4.498;2023-05-23T02:15:12;102112.75;;;13.05;93.14
69784;BME280;57054;51.978;4.498;2023-05-23T02:17:37;102116.19;;;13.07;92.54
69784;BME280;57054;51.978;4.498;2023-05-23T02:20:04;102114.44;;;13.08;92.64
69784;BME280;57054;51.978;4.498;2023-05-23T02:22:30;102125.09;;;13.03;92.54
69784;BME280;57054;51.978;4.498;2023-05-23T02:24:56;102120.91;;;12.96;92.60
69784;BME280;57054;51.978;4.498;2023-05-23T02:27:21;102121.88;;;12.94;92.95
69784;BME280;57054;51.978;4.498;2023-05-23T02:29:47;102131.38;;;12.98;92.57
69784;BME280;57054;51.978;4.498;2023-05-23T02:32:12;102130.66;;;12.93;92.64
69784;BME280;57054;51.978;4.498;2023-05-23T02:34:38;102125.44;;;12.91;92.18
69784;BME280;57054;51.978;4.498;2023-05-23T02:37:04;102136.00;;;12.90;92.35
69784;BME280;57054;51.978;4.498;2023-05-23T02:39:29;102133.34;;;12.91;92.28
69784;BME280;57054;51.978;4.498;2023-05-23T02:41:55;102143.06;;;12.87;92.29
69784;BME280;57054;51.978;4.498;2023-05-23T02:44:20;102137.78;;;12.89;91.64
69784;BME280;57054;51.978;4.498;2023-05-23T02:46:46;102153.50;;;12.91;91.66
69784;BME280;57054;51.978;4.498;2023-05-23T02:49:11;102146.47;;;12.91;91.54
69784;BME280;57054;51.978;4.498;2023-05-23T02:51:36;102161.59;;;12.84;91.49
69784;BME280;57054;51.978;4.498;2023-05-23T02:54:02;102158.16;;;12.82;91.73
69784;BME280;57054;51.978;4.498;2023-05-23T02:56:27;102152.97;;;12.79;91.46
69784;BME280;57054;51.978;4.498;2023-05-23T02:58:53;102156.50;;;12.78;91.63
69784;BME280;57054;51.978;4.498;2023-05-23T03:01:19;102169.59;;;12.80;91.01
69784;BME280;57054;51.978;4.498;2023-05-23T03:03:44;102162.75;;;12.74;91.60
69784;BME280;57054;51.978;4.498;2023-05-23T03:06:10;102161.91;;;12.74;91.46
69784;BME280;57054;51.978;4.498;2023-05-23T03:08:39;102161.19;;;12.67;91.45
69784;BME280;57054;51.978;4.498;2023-05-23T03:11:05;102167.34;;;12.66;91.30
69784;BME280;57054;51.978;4.498;2023-05-23T03:13:31;102161.38;;;12.61;91.31
69784;BME280;57054;51.978;4.498;2023-05-23T03:15:56;102165.69;;;12.63;91.29
69784;BME280;57054;51.978;4.498;2023-05-23T03:18:21;102157.09;;;12.57;91.66
69784;BME280;57054;51.978;4.498;2023-05-23T03:20:47;102157.03;;;12.60;92.16
69784;BME280;57054;51.978;4.498;2023-05-23T03:23:12;102157.84;;;12.62;92.15
69784;BME280;57054;51.978;4.498;2023-05-23T03:25:38;102160.44;;;12.63;91.96
69784;BME280;57054;51.978;4.498;2023-05-23T03:28:03;102162.25;;;12.61;91.06
69784;BME280;57054;51.978;4.498;2023-05-23T03:30:28;102165.84;;;12.59;91.22
69784;BME280;57054;51.978;4.498;2023-05-23T03:32:54;102166.66;;;12.61;90.46
69784;BME280;57054;51.978;4.498;2023-05-23T03:35:19;102162.50;;;12.52;89.59
69784;BME280;57054;51.978;4.498;2023-05-23T03:37:45;102165.28;;;12.46;89.57
69784;BME280;57054;51.978;4.498;2023-05-23T03:40:10;102169.03;;;12.37;89.31
69784;BME280;57054;51.978;4.498;2023-05-23T03:42:37;102174.28;;;12.37;89.18
69784;BME280;57054;51.978;4.498;2023-05-23T03:45:03;102178.63;;;12.38;88.75
69784;BME280;57054;51.978;4.498;2023-05-23T03:47:29;102179.50;;;12.39;88.72
69784;BME280;57054;51.978;4.498;2023-05-23T03:49:55;102190.13;;;12.34;88.24
69784;BME280;57054;51.978;4.498;2023-05-23T03:52:20;102186.53;;;12.37;88.19
69784;BME280;57054;51.978;4.498;2023-05-23T03:54:45;102193.75;;;12.30;87.95
69784;BME280;57054;51.978;4.498;2023-05-23T03:57:11;102185.91;;;12.28;88.34
69784;BME280;57054;51.978;4.498;2023-05-23T03:59:36;102186.03;;;12.22;88.87
69784;BME280;57054;51.978;4.498;2023-05-23T04:02:02;102196.66;;;12.19;89.22
69784;BME280;57054;51.978;4.498;2023-05-23T04:04:28;102196.66;;;12.19;89.54
69784;BME280;57054;51.978;4.498;2023-05-23T04:06:54;102211.63;;;12.16;88.71
69784;BME280;57054;51.978;4.498;2023-05-23T04:09:20;102210.72;;;12.17;88.63
69784;BME280;57054;51.978;4.498;2023-05-23T04:11:45;102215.03;;;12.19;88.03
69784;BME280;57054;51.978;4.498;2023-05-23T04:14:11;102214.91;;;12.24;87.08
69784;BME280;57054;51.978;4.498;2023-05-23T04:16:37;102220.25;;;12.21;86.08
69784;BME280;57054;51.978;4.498;2023-05-23T04:19:06;102223.03;;;12.15;85.37
69784;BME280;57054;51.978;4.498;2023-05-23T04:21:31;102215.34;;;12.07;85.26
69784;BME280;57054;51.978;4.498;2023-05-23T04:23:57;102210.97;;;12.06;85.20
69784;BME280;57054;51.978;4.498;2023-05-23T04:26:22;102213.53;;;12.09;85.38
69784;BME280;57054;51.978;4.498;2023-05-23T04:28:48;102220.50;;;12.12;85.24
69784;BME280;57054;51.978;4.498;2023-05-23T04:31:14;102222.19;;;12.13;85.78
69784;BME280;57054;51.978;4.498;2023-05-23T04:33:39;102220.38;;;12.15;86.00
69784;BME280;57054;51.978;4.498;2023-05-23T04:36:05;102227.44;;;12.13;85.86
69784;BME280;57054;51.978;4.498;2023-05-23T04:38:34;102230.31;;;12.03;85.81
69784;BME280;57054;51.978;4.498;2023-05-23T04:40:59;102235.41;;;12.09;85.82
69784;BME280;57054;51.978;4.498;2023-05-23T04:43:25;102229.34;;;12.06;84.96
69784;BME280;57054;51.978;4.498;2023-05-23T04:45:53;102232.78;;;12.09;84.83
69784;BME280;57054;51.978;4.498;2023-05-23T04:48:19;102242.44;;;12.07;84.99
69784;BME280;57054;51.978;4.498;2023-05-23T04:50:46;102252.97;;;12.07;84.89
69784;BME280;57054;51.978;4.498;2023-05-23T04:53:12;102239.94;;;12.03;84.27
69784;BME280;57054;51.978;4.498;2023-05-23T04:55:37;102248.75;;;12.00;84.25
69784;BME280;57054;51.978;4.498;2023-05-23T04:58:03;102254.22;;;11.91;84.51
69784;BME280;57054;51.978;4.498;2023-05-23T05:00:28;102248.06;;;11.94;84.25
69784;BME280;57054;51.978;4.498;2023-05-23T05:02:54;102251.50;;;11.96;84.47
69784;BME280;57054;51.978;4.498;2023-05-23T05:05:20;102265.38;;;12.01;84.32
69784;BME280;57054;51.978;4.498;2023-05-23T05:07:45;102264.50;;;12.00;83.71
69784;BME280;57054;51.978;4.498;2023-05-23T05:10:11;102265.53;;;11.93;83.47
69784;BME280;57054;51.978;4.498;2023-05-23T05:12:44;102266.56;;;11.86;83.83
69784;BME280;57054;51.978;4.498;2023-05-23T05:15:16;102274.44;;;11.86;84.10
69784;BME280;57054;51.978;4.498;2023-05-23T05:17:42;102263.28;;;11.76;82.13
69784;BME280;57054;51.978;4.498;2023-05-23T05:20:09;102273.56;;;11.85;82.24
69784;BME280;57054;51.978;4.498;2023-05-23T05:22:35;102267.53;;;11.82;83.43
69784;BME280;57054;51.978;4.498;2023-05-23T05:25:01;102280.56;;;11.86;83.54
69784;BME280;57054;51.978;4.498;2023-05-23T05:27:27;102273.72;;;11.79;83.19
69784;BME280;57054;51.978;4.498;2023-05-23T05:29:53;102295.59;;;11.80;83.34
69784;BME280;57054;51.978;4.498;2023-05-23T05:32:22;102286.97;;;11.73;82.32
69784;BME280;57054;51.978;4.498;2023-05-23T05:34:48;102278.25;;;11.72;82.61
69784;BME280;57054;51.978;4.498;2023-05-23T05:37:13;102287.91;;;11.70;82.58
69784;BME280;57054;51.978;4.498;2023-05-23T05:39:39;102289.66;;;11.71;82.92
69784;BME280;57054;51.978;4.498;2023-05-23T05:42:04;102292.22;;;11.73;83.11
69784;BME280;57054;51.978;4.498;2023-05-23T05:44:30;102289.50;;;11.78;83.59
69784;BME280;57054;51.978;4.498;2023-05-23T05:46:55;102291.38;;;11.72;83.86
69784;BME280;57054;51.978;4.498;2023-05-23T05:49:20;102286.09;;;11.74;84.34
69784;BME280;57054;51.978;4.498;2023-05-23T05:51:46;102289.53;;;11.76;84.12
69784;BME280;57054;51.978;4.498;2023-05-23T05:54:12;102291.97;;;11.84;84.18
69784;BME280;57054;51.978;4.498;2023-05-23T05:56:37;102294.59;;;11.84;84.86
69784;BME280;57054;51.978;4.498;2023-05-23T05:59:03;102299.00;;;11.83;84.65
69784;BME280;57054;51.978;4.498;2023-05-23T06:01:28;102294.59;;;11.84;85.17
69784;BME280;57054;51.978;4.498;2023-05-23T06:03:54;102291.13;;;11.83;85.91
69784;BME280;57054;51.978;4.498;2023-05-23T06:06:20;102297.22;;;11.84;86.22
69784;BME280;57054;51.978;4.498;2023-05-23T06:08:46;102294.50;;;11.88;85.95
69784;BME280;57054;51.978;4.498;2023-05-23T06:11:11;102303.25;;;11.89;86.41
69784;BME280;57054;51.978;4.498;2023-05-23T06:13:36;102311.25;;;11.84;87.03
69784;BME280;57054;51.978;4.498;2023-05-23T06:16:02;102310.53;;;11.76;87.55
69784;BME280;57054;51.978;4.498;2023-05-23T06:18:27;102311.34;;;11.78;87.92
69784;BME280;57054;51.978;4.498;2023-05-23T06:20:53;102311.34;;;11.78;88.26
69784;BME280;57054;51.978;4.498;2023-05-23T06:23:18;102313.97;;;11.80;88.30
69784;BME280;57054;51.978;4.498;2023-05-23T06:25:43;102326.22;;;11.79;87.88
69784;BME280;57054;51.978;4.498;2023-05-23T06:28:09;102323.88;;;11.65;88.08
69784;BME280;57054;51.978;4.498;2023-05-23T06:30:34;102325.66;;;11.65;88.80
69784;BME280;57054;51.978;4.498;2023-05-23T06:33:02;102324.75;;;11.66;88.75
69784;BME280;57054;51.978;4.498;2023-05-23T06:35:27;102315.97;;;11.68;88.91
69784;BME280;57054;51.978;4.498;2023-05-23T06:37:52;102319.34;;;11.74;88.91
69784;BME280;57054;51.978;4.498;2023-05-23T06:40:18;102324.69;;;11.69;87.99
69784;BME280;57054;51.978;4.498;2023-05-23T06:42:43;102329.97;;;11.67;87.36
69784;BME280;57054;51.978;4.498;2023-05-23T06:45:09;102329.25;;;11.61;87.71
69784;BME280;57054;51.978;4.498;2023-05-23T06:47:34;102328.28;;;11.65;87.84
69784;BME280;57054;51.978;4.498;2023-05-23T06:50:01;102324.66;;;11.70;86.93
69784;BME280;57054;51.978;4.498;2023-05-23T06:52:26;102336.97;;;11.67;85.09
69784;BME280;57054;51.978;4.498;2023-05-23T06:54:52;102337.97;;;11.61;85.23
69784;BME280;57054;51.978;4.498;2023-05-23T06:57:17;102335.50;;;11.55;84.14
69784;BME280;57054;51.978;4.498;2023-05-23T06:59:42;102338.78;;;11.65;84.80
69784;BME280;57054;51.978;4.498;2023-05-23T07:02:08;102338.63;;;11.71;84.85
69784;BME280;57054;51.978;4.498;2023-05-23T07:04:33;102332.34;;;11.78;84.60
69784;BME280;57054;51.978;4.498;2023-05-23T07:06:59;102334.94;;;11.81;83.61
69784;BME280;57054;51.978;4.498;2023-05-23T07:09:24;102338.28;;;11.88;82.37
69784;BME280;57054;51.978;4.498;2023-05-23T07:11:49;102345.16;;;11.95;80.53
69784;BME280;57054;51.978;4.498;2023-05-23T07:14:15;102341.66;;;11.95;78.48
69784;BME280;57054;51.978;4.498;2023-05-23T07:16:40;102344.41;;;11.87;78.06
69784;BME280;57054;51.978;4.498;2023-05-23T07:19:06;102349.69;;;11.87;77.45
69784;BME280;57054;51.978;4.498;2023-05-23T07:21:31;102350.50;;;11.89;77.43
69784;BME280;57054;51.978;4.498;2023-05-23T07:23:56;102350.47;;;11.92;77.38
69784;BME280;57054;51.978;4.498;2023-05-23T07:26:22;102366.25;;;11.90;77.07
69784;BME280;57054;51.978;4.498;2023-05-23T07:28:47;102361.78;;;11.96;76.00
69784;BME280;57054;51.978;4.498;2023-05-23T07:31:13;102362.44;;;12.04;76.50
69784;BME280;57054;51.978;4.498;2023-05-23T07:33:38;102357.22;;;12.02;76.03
69784;BME280;57054;51.978;4.498;2023-05-23T07:36:04;102359.66;;;12.12;76.69
69784;BME280;57054;51.978;4.498;2023-05-23T07:38:29;102357.91;;;12.12;76.35
69784;BME280;57054;51.978;4.498;2023-05-23T07:40:54;102363.13;;;12.14;75.32
69784;BME280;57054;51.978;4.498;2023-05-23T07:43:20;102362.00;;;12.24;76.42
69784;BME280;57054;51.978;4.498;2023-05-23T07:45:45;102356.44;;;12.38;76.50
69784;BME280;57054;51.978;4.498;2023-05-23T07:48:11;102365.84;;;12.46;75.23
69784;BME280;57054;51.978;4.498;2023-05-23T07:50:38;102365.59;;;12.57;75.86
69784;BME280;57054;51.978;4.498;2023-05-23T07:53:04;102373.47;;;12.57;75.25
69784;BME280;57054;51.978;4.498;2023-05-23T07:55:30;102368.25;;;12.56;76.09
69784;BME280;57054;51.978;4.498;2023-05-23T07:57:56;102365.56;;;12.59;76.39
69784;BME280;57054;51.978;4.498;2023-05-23T08:00:21;102369.19;;;12.53;76.24
69784;BME280;57054;51.978;4.498;2023-05-23T08:02:47;102380.63;;;12.51;76.47
69784;BME280;57054;51.978;4.498;2023-05-23T08:05:12;102379.03;;;12.45;76.25
69784;BME280;57054;51.978;4.498;2023-05-23T08:07:38;102382.66;;;12.39;76.15
69784;BME280;57054;51.978;4.498;2023-05-23T08:10:03;102378.38;;;12.35;75.81
69784;BME280;57054;51.978;4.498;2023-05-23T08:12:29;102380.97;;;12.37;74.98
69784;BME280;57054;51.978;4.498;2023-05-23T08:14:54;102381.09;;;12.32;75.69
69784;BME280;57054;51.978;4.498;2023-05-23T08:17:20;102385.34;;;12.36;73.68
69784;BME280;57054;51.978;4.498;2023-05-23T08:19:45;102394.06;;;12.38;73.65
69784;BME280;57054;51.978;4.498;2023-05-23T08:22:11;102393.78;;;12.51;73.29
69784;BME280;57054;51.978;4.498;2023-05-23T08:24:36;102403.31;;;12.55;73.07
69784;BME280;57054;51.978;4.498;2023-05-23T08:27:01;102399.72;;;12.59;73.33
69784;BME280;57054;51.978;4.498;2023-05-23T08:29:27;102396.00;;;12.66;73.17
69784;BME280;57054;51.978;4.498;2023-05-23T08:31:52;102398.50;;;12.72;73.69
69784;BME280;57054;51.978;4.498;2023-05-23T08:34:18;102398.50;;;12.72;74.25
69784;BME280;57054;51.978;4.498;2023-05-23T08:36:43;102394.25;;;12.68;74.05
69784;BME280;57054;51.978;4.498;2023-05-23T08:39:09;102406.53;;;12.66;73.88
69784;BME280;57054;51.978;4.498;2023-05-23T08:41:35;102397.69;;;12.70;72.83
69784;BME280;57054;51.978;4.498;2023-05-23T08:44:00;102407.19;;;12.76;72.21
69784;BME280;57054;51.978;4.498;2023-05-23T08:46:26;102406.16;;;12.81;72.67
69784;BME280;57054;51.978;4.498;2023-05-23T08:48:53;102390.13;;;12.92;72.83
69784;BME280;57054;51.978;4.498;2023-05-23T08:51:25;102403.03;;;13.01;72.86
69784;BME280;57054;51.978;4.498;2023-05-23T08:53:50;102411.75;;;13.03;70.42
69784;BME280;57054;51.978;4.498;2023-05-23T08:56:18;102422.25;;;13.03;70.21
69784;BME280;57054;51.978;4.498;2023-05-23T08:58:44;102403.00;;;13.03;70.15
69784;BME280;57054;51.978;4.498;2023-05-23T09:01:12;102409.91;;;13.07;70.60
69784;BME280;57054;51.978;4.498;2023-05-23T09:03:39;102403.03;;;13.01;70.62
69784;BME280;57054;51.978;4.498;2023-05-23T09:06:07;102406.31;;;13.10;71.33
69784;BME280;57054;51.978;4.498;2023-05-23T09:08:33;102413.06;;;13.20;70.64
69784;BME280;57054;51.978;4.498;2023-05-23T09:10:58;102419.84;;;13.29;70.74
69784;BME280;57054;51.978;4.498;2023-05-23T09:13:28;102421.56;;;13.31;70.26
69784;BME280;57054;51.978;4.498;2023-05-23T09:18:26;102435.63;;;13.29;68.30
69784;BME280;57054;51.978;4.498;2023-05-23T09:20:52;102423.28;;;13.32;69.10
69784;BME280;57054;51.978;4.498;2023-05-23T09:23:18;102427.59;;;13.35;69.60
69784;BME280;57054;51.978;4.498;2023-05-23T09:25:47;102439.88;;;13.36;69.31
69784;BME280;57054;51.978;4.498;2023-05-23T09:28:13;102430.22;;;13.35;69.24
69784;BME280;57054;51.978;4.498;2023-05-23T09:30:38;102431.94;;;13.37;68.96
69784;BME280;57054;51.978;4.498;2023-05-23T09:33:04;102432.78;;;13.38;69.83
69784;BME280;57054;51.978;4.498;2023-05-23T09:35:30;102438.81;;;13.43;70.34
69784;BME280;57054;51.978;4.498;2023-05-23T09:37:57;102442.22;;;13.47;68.50
69784;BME280;57054;51.978;4.498;2023-05-23T09:40:29;102451.63;;;13.55;69.02
69784;BME280;57054;51.978;4.498;2023-05-23T09:43:00;102445.50;;;13.53;68.06
69784;BME280;57054;51.978;4.498;2023-05-23T09:45:30;102444.56;;;13.57;68.27
69784;BME280;57054;51.978;4.498;2023-05-23T09:47:55;102432.28;;;13.56;69.05
69784;BME280;57054;51.978;4.498;2023-05-23T09:50:22;102440.91;;;13.61;68.62
69784;BME280;57054;51.978;4.498;2023-05-23T09:52:48;102439.84;;;13.69;68.60
69784;BME280;57054;51.978;4.498;2023-05-23T09:55:15;102440.47;;;13.77;67.99
69784;BME280;57054;51.978;4.498;2023-05-23T09:57:41;102446.59;;;13.79;67.40
69784;BME280;57054;51.978;4.498;2023-05-23T10:00:08;102453.56;;;13.80;66.92
69784;BME280;57054;51.978;4.498;2023-05-23T10:05:58;102451.78;;;13.80;67.34
69784;BME280;57054;51.978;4.498;2023-05-23T10:08:42;102452.94;;;13.72;67.70
69784;BME280;57054;51.978;4.498;2023-05-23T10:13:40;102456.75;;;13.60;67.25
69784;BME280;57054;51.978;4.498;2023-05-23T10:16:19;102459.34;;;13.61;68.05
69784;BME280;57054;51.978;4.498;2023-05-23T10:18:58;102455.84;;;13.61;66.99
69784;BME280;57054;51.978;4.498;2023-05-23T10:21:49;102458.44;;;13.62;66.80
69784;BME280;57054;51.978;4.498;2023-05-23T10:24:15;102454.19;;;13.57;66.40
69784;BME280;57054;51.978;4.498;2023-05-23T10:26:42;102466.56;;;13.53;64.85
69784;BME280;57054;51.978;4.498;2023-05-23T10:29:07;102464.78;;;13.55;64.38
69784;BME280;57054;51.978;4.498;2023-05-23T10:31:34;102453.53;;;13.50;63.56
69784;BME280;57054;51.978;4.498;2023-05-23T10:34:24;102467.28;;;13.60;62.81
69784;BME280;57054;51.978;4.498;2023-05-23T10:37:04;102465.25;;;13.70;62.73
69784;BME280;57054;51.978;4.498;2023-05-23T10:42:55;102476.22;;;13.86;64.84
69784;BME280;57054;51.978;4.498;2023-05-23T10:45:26;102464.75;;;13.88;64.65
69784;BME280;57054;51.978;4.498;2023-05-23T10:47:52;102475.22;;;13.90;64.64
69784;BME280;57054;51.978;4.498;2023-05-23T10:50:34;102474.09;;;13.98;64.80
69784;BME280;57054;51.978;4.498;2023-05-23T10:53:02;102473.25;;;13.98;64.89
69784;BME280;57054;51.978;4.498;2023-05-23T10:55:32;102476.97;;;13.91;66.33
69784;BME280;57054;51.978;4.498;2023-05-23T10:58:31;102476.13;;;13.89;66.46
69784;BME280;57054;51.978;4.498;2023-05-23T11:03:48;102472.78;;;13.83;66.02
69784;BME280;57054;51.978;4.498;2023-05-23T11:06:39;102463.94;;;13.86;67.25
69784;BME280;57054;51.978;4.498;2023-05-23T11:09:10;102468.25;;;13.89;67.24
69784;BME280;57054;51.978;4.498;2023-05-23T11:14:33;102474.34;;;13.89;66.37
69784;BME280;57054;51.978;4.498;2023-05-23T11:17:01;102473.13;;;14.02;67.17
69784;BME280;57054;51.978;4.498;2023-05-23T11:19:39;102465.03;;;14.09;65.79
69784;BME280;57054;51.978;4.498;2023-05-23T11:22:19;102477.34;;;14.08;65.11
69784;BME280;57054;51.978;4.498;2023-05-23T11:24:52;102474.88;;;14.02;63.89
69784;BME280;57054;51.978;4.498;2023-05-23T11:27:34;102475.69;;;14.04;63.63
69784;BME280;57054;51.978;4.498;2023-05-23T11:30:11;102474.75;;;14.07;63.77
69784;BME280;57054;51.978;4.498;2023-05-23T11:32:41;102480.09;;;14.04;63.22
69784;BME280;57054;51.978;4.498;2023-05-23T11:35:08;102481.88;;;14.03;63.37
69784;BME280;57054;51.978;4.498;2023-05-23T11:37:36;102474.72;;;14.08;64.02
69784;BME280;57054;51.978;4.498;2023-05-23T11:42:49;102488.16;;;13.99;63.50
69784;BME280;57054;51.978;4.498;2023-05-23T11:45:18;102487.19;;;14.01;64.11
69784;BME280;57054;51.978;4.498;2023-05-23T11:47:43;102504.84;;;13.98;64.00
69784;BME280;57054;51.978;4.498;2023-05-23T11:50:09;102499.63;;;13.96;64.38
69784;BME280;57054;51.978;4.498;2023-05-23T11:52:34;102500.59;;;13.94;63.69
69784;BME280;57054;51.978;4.498;2023-05-23T11:55:00;102497.94;;;13.94;63.29
69784;BME280;57054;51.978;4.498;2023-05-23T11:57:26;102480.41;;;13.93;61.88
69784;BME280;57054;51.978;4.498;2023-05-23T11:59:52;102488.16;;;13.99;63.33
69784;BME280;57054;51.978;4.498;2023-05-23T12:02:19;102481.19;;;13.96;61.81
69784;BME280;57054;51.978;4.498;2023-05-23T12:04:45;102482.22;;;13.91;62.36
69784;BME280;57054;51.978;4.498;2023-05-23T12:07:10;102499.63;;;13.96;62.16
69784;BME280;57054;51.978;4.498;2023-05-23T12:09:43;102497.69;;;14.03;61.39
69784;BME280;57054;51.978;4.498;2023-05-23T12:12:09;102486.22;;;14.04;61.07
69784;BME280;57054;51.978;4.498;2023-05-23T12:14:35;102489.69;;;14.06;60.83
69784;BME280;57054;51.978;4.498;2023-05-23T12:17:03;102493.06;;;14.10;61.10
69784;BME280;57054;51.978;4.498;2023-05-23T12:19:29;102498.50;;;14.05;60.25
69784;BME280;57054;51.978;4.498;2023-05-23T12:21:55;102496.69;;;14.07;61.31
69784;BME280;57054;51.978;4.498;2023-05-23T12:24:21;102504.63;;;14.06;61.45
69784;BME280;57054;51.978;4.498;2023-05-23T12:27:01;102498.47;;;14.07;64.38
69784;BME280;57054;51.978;4.498;2023-05-23T12:29:28;102491.41;;;14.07;66.95
69784;BME280;57054;51.978;4.498;2023-05-23T12:32:00;102498.16;;;14.17;65.59
69784;BME280;57054;51.978;4.498;2023-05-23T12:34:26;102500.63;;;14.22;64.81
69784;BME280;57054;51.978;4.498;2023-05-23T12:36:55;102497.03;;;14.26;64.50
69784;BME280;57054;51.978;4.498;2023-05-23T12:39:27;102501.41;;;14.26;62.99
69784;BME280;57054;51.978;4.498;2023-05-23T12:41:53;102498.22;;;14.14;61.26
69784;BME280;57054;51.978;4.498;2023-05-23T12:44:20;102495.72;;;14.10;61.78
69784;BME280;57054;51.978;4.498;2023-05-23T12:46:46;102495.88;;;14.05;62.65
69784;BME280;57054;51.978;4.498;2023-05-23T12:49:12;102493.28;;;14.04;63.83
69784;BME280;57054;51.978;4.498;2023-05-23T12:51:39;102490.59;;;14.05;63.96
69784;BME280;57054;51.978;4.498;2023-05-23T12:54:04;102493.16;;;14.08;63.44
69784;BME280;57054;51.978;4.498;2023-05-23T12:56:30;102499.97;;;14.15;62.74
69784;BME280;57054;51.978;4.498;2023-05-23T12:58:56;102493.81;;;14.15;62.18
69784;BME280;57054;51.978;4.498;2023-05-23T13:01:21;102494.81;;;14.11;61.51
69784;BME280;57054;51.978;4.498;2023-05-23T13:03:47;102496.44;;;14.15;61.17
69784;BME280;57054;51.978;4.498;2023-05-23T13:06:13;102494.91;;;14.08;61.67
69784;BME280;57054;51.978;4.498;2023-05-23T13:08:38;102493.00;;;14.13;62.38
69784;BME280;57054;51.978;4.498;2023-05-23T13:11:04;102493.72;;;14.18;62.00
69784;BME280;57054;51.978;4.498;2023-05-23T13:13:30;102511.41;;;14.14;60.36
69784;BME280;57054;51.978;4.498;2023-05-23T13:15:57;102494.00;;;14.09;60.27
69784;BME280;57054;51.978;4.498;2023-05-23T13:18:22;102491.28;;;14.12;60.54
69784;BME280;57054;51.978;4.498;2023-05-23T13:20:48;102508.75;;;14.14;62.46